sensor_id;sensor_type;location;lat;lon;timestamp;P1;durP1;ratioP1;P2;durP2;ratioP2
49392;SDS011;35268;42.642;23.308;2022-12-07T00:03:39;58.10;;;24.75;;
49392;SDS011;35268;42.642;23.308;2022-12-07T00:06:06;58.88;;;25.00;;
49392;SDS011;35268;42.642;23.308;2022-12-07T00:08:32;54.80;;;24.90;;
49392;SDS011;35268;42.642;23.308;2022-12-07T00:11:02;58.85;;;25.08;;
49392;SDS011;35268;42.642;23.308;2022-12-07T00:13:28;49.00;;;25.10;;
49392;SDS011;35268;42.642;23.308;2022-12-07T00:15:54;52.13;;;25.63;;
49392;SDS011;35268;42.642;23.308;2022-12-07T00:18:20;50.67;;;23.40;;
49392;SDS011;35268;42.642;23.308;2022-12-07T00:20:45;53.90;;;26.10;;
49392;SDS011;35268;42.642;23.308;2022-12-07T00:23:11;60.03;;;25.67;;
49392;SDS011;35268;42.642;23.308;2022-12-07T00:25:36;65.70;;;27.02;;
49392;SDS011;35268;42.642;23.308;2022-12-07T00:28:02;65.18;;;26.98;;
49392;SDS011;35268;42.642;23.308;2022-12-07T00:30:27;64.25;;;26.58;;
49392;SDS011;35268;42.642;23.308;2022-12-07T00:32:53;63.65;;;28.92;;
49392;SDS011;35268;42.642;23.308;2022-12-07T00:35:18;64.38;;;26.83;;
49392;SDS011;35268;42.642;23.308;2022-12-07T00:37:43;58.33;;;26.27;;
49392;SDS011;35268;42.642;23.308;2022-12-07T00:40:09;69.28;;;30.20;;
49392;SDS011;35268;42.642;23.308;2022-12-07T00:42:35;72.85;;;32.63;;
49392;SDS011;35268;42.642;23.308;2022-12-07T00:45:00;73.20;;;31.40;;
49392;SDS011;35268;42.642;23.308;2022-12-07T00:47:25;68.90;;;31.42;;
49392;SDS011;35268;42.642;23.308;2022-12-07T00:49:51;68.90;;;33.30;;
49392;SDS011;35268;42.642;23.308;2022-12-07T00:52:16;66.63;;;30.75;;
49392;SDS011;35268;42.642;23.308;2022-12-07T00:54:42;70.90;;;30.92;;
49392;SDS011;35268;42.642;23.308;2022-12-07T00:57:07;72.32;;;28.38;;
49392;SDS011;35268;42.642;23.308;2022-12-07T00:59:32;55.38;;;26.35;;
49392;SDS011;35268;42.642;23.308;2022-12-07T01:01:58;61.83;;;25.52;;
49392;SDS011;35268;42.642;23.308;2022-12-07T01:04:23;63.53;;;26.35;;
49392;SDS011;35268;42.642;23.308;2022-12-07T01:06:49;52.25;;;25.35;;
49392;SDS011;35268;42.642;23.308;2022-12-07T01:09:14;56.67;;;25.17;;
49392;SDS011;35268;42.642;23.308;2022-12-07T01:11:40;55.83;;;25.73;;
49392;SDS011;35268;42.642;23.308;2022-12-07T01:14:05;66.95;;;27.17;;
49392;SDS011;35268;42.642;23.308;2022-12-07T01:16:31;56.42;;;24.00;;
49392;SDS011;35268;42.642;23.308;2022-12-07T01:18:58;51.63;;;24.92;;
49392;SDS011;35268;42.642;23.308;2022-12-07T01:21:26;57.42;;;24.52;;
49392;SDS011;35268;42.642;23.308;2022-12-07T01:23:59;58.90;;;24.25;;
49392;SDS011;35268;42.642;23.308;2022-12-07T01:26:25;49.80;;;23.15;;
49392;SDS011;35268;42.642;23.308;2022-12-07T01:28:52;54.63;;;25.42;;
49392;SDS011;35268;42.642;23.308;2022-12-07T01:31:20;47.83;;;22.40;;
49392;SDS011;35268;42.642;23.308;2022-12-07T01:33:48;50.95;;;23.92;;
49392;SDS011;35268;42.642;23.308;2022-12-07T01:36:18;54.42;;;21.55;;
49392;SDS011;35268;42.642;23.308;2022-12-07T01:41:25;52.50;;;20.45;;
49392;SDS011;35268;42.642;23.308;2022-12-07T01:47:00;57.00;;;21.90;;
49392;SDS011;35268;42.642;23.308;2022-12-07T01:49:41;46.55;;;22.00;;
49392;SDS011;35268;42.642;23.308;2022-12-07T01:52:18;49.75;;;20.27;;
49392;SDS011;35268;42.642;23.308;2022-12-07T01:54:49;50.58;;;21.55;;
49392;SDS011;35268;42.642;23.308;2022-12-07T01:57:18;55.03;;;21.50;;
49392;SDS011;35268;42.642;23.308;2022-12-07T01:59:44;53.88;;;22.92;;
49392;SDS011;35268;42.642;23.308;2022-12-07T02:02:15;52.90;;;22.08;;
49392;SDS011;35268;42.642;23.308;2022-12-07T02:04:45;49.58;;;20.83;;
49392;SDS011;35268;42.642;23.308;2022-12-07T02:07:11;51.10;;;22.52;;
49392;SDS011;35268;42.642;23.308;2022-12-07T02:09:37;53.95;;;23.45;;
49392;SDS011;35268;42.642;23.308;2022-12-07T02:12:02;53.40;;;23.25;;
49392;SDS011;35268;42.642;23.308;2022-12-07T02:14:29;49.30;;;22.40;;
49392;SDS011;35268;42.642;23.308;2022-12-07T02:19:43;55.90;;;22.40;;
49392;SDS011;35268;42.642;23.308;2022-12-07T02:22:26;49.60;;;21.30;;
49392;SDS011;35268;42.642;23.308;2022-12-07T02:30:32;47.05;;;21.30;;
49392;SDS011;35268;42.642;23.308;2022-12-07T02:33:26;45.58;;;22.48;;
49392;SDS011;35268;42.642;23.308;2022-12-07T02:36:19;45.58;;;22.27;;
49392;SDS011;35268;42.642;23.308;2022-12-07T02:38:55;53.92;;;21.83;;
49392;SDS011;35268;42.642;23.308;2022-12-07T02:41:26;53.50;;;22.23;;
49392;SDS011;35268;42.642;23.308;2022-12-07T02:43:56;49.95;;;22.95;;
49392;SDS011;35268;42.642;23.308;2022-12-07T02:46:32;44.90;;;24.20;;
49392;SDS011;35268;42.642;23.308;2022-12-07T02:49:00;53.72;;;23.13;;
49392;SDS011;35268;42.642;23.308;2022-12-07T02:51:29;49.83;;;22.92;;
49392;SDS011;35268;42.642;23.308;2022-12-07T02:53:55;42.80;;;21.17;;
49392;SDS011;35268;42.642;23.308;2022-12-07T02:56:44;44.05;;;20.23;;
49392;SDS011;35268;42.642;23.308;2022-12-07T03:02:41;42.05;;;20.30;;
49392;SDS011;35268;42.642;23.308;2022-12-07T03:11:04;48.20;;;22.08;;
49392;SDS011;35268;42.642;23.308;2022-12-07T03:16:14;42.75;;;20.50;;
49392;SDS011;35268;42.642;23.308;2022-12-07T03:18:52;45.10;;;20.63;;
49392;SDS011;35268;42.642;23.308;2022-12-07T03:21:25;45.63;;;21.13;;
49392;SDS011;35268;42.642;23.308;2022-12-07T03:23:56;40.22;;;19.83;;
49392;SDS011;35268;42.642;23.308;2022-12-07T03:26:24;41.10;;;20.15;;
49392;SDS011;35268;42.642;23.308;2022-12-07T03:28:57;45.63;;;21.65;;
49392;SDS011;35268;42.642;23.308;2022-12-07T03:31:28;45.05;;;21.70;;
49392;SDS011;35268;42.642;23.308;2022-12-07T03:33:59;42.45;;;18.52;;
49392;SDS011;35268;42.642;23.308;2022-12-07T03:36:54;43.28;;;19.92;;
49392;SDS011;35268;42.642;23.308;2022-12-07T03:39:27;44.63;;;20.52;;
49392;SDS011;35268;42.642;23.308;2022-12-07T03:42:00;40.25;;;19.40;;
49392;SDS011;35268;42.642;23.308;2022-12-07T03:44:30;38.40;;;18.58;;
49392;SDS011;35268;42.642;23.308;2022-12-07T03:49:31;47.38;;;18.70;;
49392;SDS011;35268;42.642;23.308;2022-12-07T03:54:51;38.20;;;19.17;;
49392;SDS011;35268;42.642;23.308;2022-12-07T03:57:17;37.20;;;19.38;;
49392;SDS011;35268;42.642;23.308;2022-12-07T03:59:44;37.63;;;17.92;;
49392;SDS011;35268;42.642;23.308;2022-12-07T04:02:11;39.28;;;18.70;;
49392;SDS011;35268;42.642;23.308;2022-12-07T04:04:38;39.05;;;19.52;;
49392;SDS011;35268;42.642;23.308;2022-12-07T04:07:04;44.65;;;19.15;;
49392;SDS011;35268;42.642;23.308;2022-12-07T04:09:29;37.88;;;18.15;;
49392;SDS011;35268;42.642;23.308;2022-12-07T04:11:55;36.45;;;15.80;;
49392;SDS011;35268;42.642;23.308;2022-12-07T04:14:20;36.25;;;18.15;;
49392;SDS011;35268;42.642;23.308;2022-12-07T04:16:47;34.08;;;16.27;;
49392;SDS011;35268;42.642;23.308;2022-12-07T04:19:22;35.45;;;16.40;;
49392;SDS011;35268;42.642;23.308;2022-12-07T04:21:49;31.67;;;15.68;;
49392;SDS011;35268;42.642;23.308;2022-12-07T04:24:15;35.53;;;16.25;;
49392;SDS011;35268;42.642;23.308;2022-12-07T04:26:41;35.60;;;16.65;;
49392;SDS011;35268;42.642;23.308;2022-12-07T04:29:08;34.38;;;18.25;;
49392;SDS011;35268;42.642;23.308;2022-12-07T04:31:34;42.22;;;17.65;;
49392;SDS011;35268;42.642;23.308;2022-12-07T04:34:00;37.28;;;17.92;;
49392;SDS011;35268;42.642;23.308;2022-12-07T04:36:26;33.50;;;16.63;;
49392;SDS011;35268;42.642;23.308;2022-12-07T04:38:52;36.97;;;16.10;;
49392;SDS011;35268;42.642;23.308;2022-12-07T04:41:19;33.38;;;16.00;;
49392;SDS011;35268;42.642;23.308;2022-12-07T04:43:51;36.72;;;16.40;;
49392;SDS011;35268;42.642;23.308;2022-12-07T04:46:21;42.97;;;17.80;;
49392;SDS011;35268;42.642;23.308;2022-12-07T04:48:47;33.53;;;15.68;;
49392;SDS011;35268;42.642;23.308;2022-12-07T04:51:14;36.38;;;17.33;;
49392;SDS011;35268;42.642;23.308;2022-12-07T04:53:49;37.92;;;17.00;;
49392;SDS011;35268;42.642;23.308;2022-12-07T04:56:15;39.42;;;16.55;;
49392;SDS011;35268;42.642;23.308;2022-12-07T04:58:42;37.25;;;16.30;;
49392;SDS011;35268;42.642;23.308;2022-12-07T05:01:09;39.25;;;16.50;;
49392;SDS011;35268;42.642;23.308;2022-12-07T05:03:35;30.08;;;15.73;;
49392;SDS011;35268;42.642;23.308;2022-12-07T05:06:01;30.23;;;16.10;;
49392;SDS011;35268;42.642;23.308;2022-12-07T05:08:27;29.38;;;14.88;;
49392;SDS011;35268;42.642;23.308;2022-12-07T05:10:52;34.83;;;16.00;;
49392;SDS011;35268;42.642;23.308;2022-12-07T05:13:18;35.67;;;15.50;;
49392;SDS011;35268;42.642;23.308;2022-12-07T05:15:43;39.75;;;16.98;;
49392;SDS011;35268;42.642;23.308;2022-12-07T05:18:09;43.72;;;18.15;;
49392;SDS011;35268;42.642;23.308;2022-12-07T05:20:37;36.58;;;16.77;;
49392;SDS011;35268;42.642;23.308;2022-12-07T05:23:03;32.55;;;15.82;;
49392;SDS011;35268;42.642;23.308;2022-12-07T05:25:28;41.60;;;17.25;;
49392;SDS011;35268;42.642;23.308;2022-12-07T05:27:54;36.95;;;18.40;;
49392;SDS011;35268;42.642;23.308;2022-12-07T05:30:20;45.38;;;16.48;;
49392;SDS011;35268;42.642;23.308;2022-12-07T05:32:46;41.08;;;18.85;;
49392;SDS011;35268;42.642;23.308;2022-12-07T05:35:11;43.70;;;17.50;;
49392;SDS011;35268;42.642;23.308;2022-12-07T05:37:36;41.25;;;17.45;;
49392;SDS011;35268;42.642;23.308;2022-12-07T05:40:02;39.65;;;17.05;;
49392;SDS011;35268;42.642;23.308;2022-12-07T05:42:28;40.13;;;16.42;;
49392;SDS011;35268;42.642;23.308;2022-12-07T05:44:54;46.53;;;18.75;;
49392;SDS011;35268;42.642;23.308;2022-12-07T05:47:19;43.08;;;18.17;;
49392;SDS011;35268;42.642;23.308;2022-12-07T05:49:45;41.95;;;18.38;;
49392;SDS011;35268;42.642;23.308;2022-12-07T05:52:10;43.65;;;19.38;;
49392;SDS011;35268;42.642;23.308;2022-12-07T05:54:36;48.03;;;21.05;;
49392;SDS011;35268;42.642;23.308;2022-12-07T05:57:01;43.85;;;21.17;;
49392;SDS011;35268;42.642;23.308;2022-12-07T05:59:27;35.03;;;18.52;;
49392;SDS011;35268;42.642;23.308;2022-12-07T06:01:56;44.97;;;21.30;;
49392;SDS011;35268;42.642;23.308;2022-12-07T06:04:27;50.95;;;22.67;;
49392;SDS011;35268;42.642;23.308;2022-12-07T06:06:55;36.05;;;19.08;;
49392;SDS011;35268;42.642;23.308;2022-12-07T06:09:21;47.72;;;20.58;;
49392;SDS011;35268;42.642;23.308;2022-12-07T06:11:47;40.90;;;19.30;;
49392;SDS011;35268;42.642;23.308;2022-12-07T06:14:32;44.85;;;21.20;;
49392;SDS011;35268;42.642;23.308;2022-12-07T06:16:57;47.45;;;21.00;;
49392;SDS011;35268;42.642;23.308;2022-12-07T06:19:23;46.92;;;20.95;;
49392;SDS011;35268;42.642;23.308;2022-12-07T06:21:48;49.25;;;23.40;;
49392;SDS011;35268;42.642;23.308;2022-12-07T06:24:14;51.00;;;23.45;;
49392;SDS011;35268;42.642;23.308;2022-12-07T06:26:41;54.85;;;21.17;;
49392;SDS011;35268;42.642;23.308;2022-12-07T06:29:06;51.75;;;20.90;;
49392;SDS011;35268;42.642;23.308;2022-12-07T06:31:32;44.95;;;21.23;;
49392;SDS011;35268;42.642;23.308;2022-12-07T06:34:02;48.05;;;21.75;;
49392;SDS011;35268;42.642;23.308;2022-12-07T06:36:30;52.75;;;20.90;;
49392;SDS011;35268;42.642;23.308;2022-12-07T06:38:55;48.60;;;21.88;;
49392;SDS011;35268;42.642;23.308;2022-12-07T06:41:21;59.63;;;24.40;;
49392;SDS011;35268;42.642;23.308;2022-12-07T06:43:46;49.53;;;22.88;;
49392;SDS011;35268;42.642;23.308;2022-12-07T06:46:12;51.40;;;22.35;;
49392;SDS011;35268;42.642;23.308;2022-12-07T06:48:39;53.30;;;23.30;;
49392;SDS011;35268;42.642;23.308;2022-12-07T06:51:04;48.63;;;22.45;;
49392;SDS011;35268;42.642;23.308;2022-12-07T06:53:30;52.38;;;25.00;;
49392;SDS011;35268;42.642;23.308;2022-12-07T06:55:55;56.97;;;24.63;;
49392;SDS011;35268;42.642;23.308;2022-12-07T06:58:20;47.75;;;23.30;;
49392;SDS011;35268;42.642;23.308;2022-12-07T07:00:47;56.72;;;25.33;;
49392;SDS011;35268;42.642;23.308;2022-12-07T07:03:14;62.47;;;23.70;;
49392;SDS011;35268;42.642;23.308;2022-12-07T07:05:40;50.40;;;24.75;;
49392;SDS011;35268;42.642;23.308;2022-12-07T07:08:06;65.70;;;23.88;;
49392;SDS011;35268;42.642;23.308;2022-12-07T07:10:31;55.22;;;23.02;;
49392;SDS011;35268;42.642;23.308;2022-12-07T07:12:57;55.65;;;22.92;;
49392;SDS011;35268;42.642;23.308;2022-12-07T07:15:22;58.28;;;25.42;;
49392;SDS011;35268;42.642;23.308;2022-12-07T07:17:47;63.63;;;26.35;;
49392;SDS011;35268;42.642;23.308;2022-12-07T07:20:13;63.10;;;26.48;;
49392;SDS011;35268;42.642;23.308;2022-12-07T07:22:38;57.83;;;26.17;;
49392;SDS011;35268;42.642;23.308;2022-12-07T07:25:04;60.70;;;26.13;;
49392;SDS011;35268;42.642;23.308;2022-12-07T07:27:29;70.40;;;26.33;;
49392;SDS011;35268;42.642;23.308;2022-12-07T07:29:55;56.03;;;26.17;;
49392;SDS011;35268;42.642;23.308;2022-12-07T07:32:20;57.55;;;25.65;;
49392;SDS011;35268;42.642;23.308;2022-12-07T07:34:46;59.08;;;27.75;;
49392;SDS011;35268;42.642;23.308;2022-12-07T07:37:12;66.70;;;27.60;;
49392;SDS011;35268;42.642;23.308;2022-12-07T07:39:39;61.53;;;27.80;;
49392;SDS011;35268;42.642;23.308;2022-12-07T07:42:04;60.83;;;27.35;;
49392;SDS011;35268;42.642;23.308;2022-12-07T07:44:30;70.95;;;27.63;;
49392;SDS011;35268;42.642;23.308;2022-12-07T07:46:55;72.30;;;29.58;;
49392;SDS011;35268;42.642;23.308;2022-12-07T07:49:21;63.75;;;27.75;;
49392;SDS011;35268;42.642;23.308;2022-12-07T07:51:46;71.85;;;28.25;;
49392;SDS011;35268;42.642;23.308;2022-12-07T07:54:12;61.00;;;24.77;;
49392;SDS011;35268;42.642;23.308;2022-12-07T07:56:37;51.03;;;22.90;;
49392;SDS011;35268;42.642;23.308;2022-12-07T07:59:03;49.83;;;22.60;;
49392;SDS011;35268;42.642;23.308;2022-12-07T08:01:28;52.20;;;23.17;;
49392;SDS011;35268;42.642;23.308;2022-12-07T08:03:53;55.65;;;24.55;;
49392;SDS011;35268;42.642;23.308;2022-12-07T08:06:19;55.08;;;24.27;;
49392;SDS011;35268;42.642;23.308;2022-12-07T08:08:44;55.97;;;23.65;;
49392;SDS011;35268;42.642;23.308;2022-12-07T08:11:10;46.17;;;20.15;;
49392;SDS011;35268;42.642;23.308;2022-12-07T08:13:36;52.25;;;22.10;;
49392;SDS011;35268;42.642;23.308;2022-12-07T08:16:05;47.22;;;20.02;;
49392;SDS011;35268;42.642;23.308;2022-12-07T08:18:36;39.05;;;18.38;;
49392;SDS011;35268;42.642;23.308;2022-12-07T08:21:03;42.20;;;19.35;;
49392;SDS011;35268;42.642;23.308;2022-12-07T08:23:29;42.95;;;19.52;;
49392;SDS011;35268;42.642;23.308;2022-12-07T08:25:54;45.67;;;20.17;;
49392;SDS011;35268;42.642;23.308;2022-12-07T08:28:20;45.90;;;20.27;;
49392;SDS011;35268;42.642;23.308;2022-12-07T08:30:46;48.15;;;21.65;;
49392;SDS011;35268;42.642;23.308;2022-12-07T08:33:11;48.55;;;21.90;;
49392;SDS011;35268;42.642;23.308;2022-12-07T08:35:36;53.78;;;24.05;;
49392;SDS011;35268;42.642;23.308;2022-12-07T08:38:02;53.38;;;22.90;;
49392;SDS011;35268;42.642;23.308;2022-12-07T08:40:28;50.40;;;22.05;;
49392;SDS011;35268;42.642;23.308;2022-12-07T08:42:54;49.42;;;23.02;;
49392;SDS011;35268;42.642;23.308;2022-12-07T08:45:20;44.25;;;20.55;;
49392;SDS011;35268;42.642;23.308;2022-12-07T08:50:21;46.22;;;20.85;;
49392;SDS011;35268;42.642;23.308;2022-12-07T08:52:48;45.22;;;21.80;;
49392;SDS011;35268;42.642;23.308;2022-12-07T08:55:17;44.75;;;22.67;;
49392;SDS011;35268;42.642;23.308;2022-12-07T08:57:44;48.80;;;22.40;;
49392;SDS011;35268;42.642;23.308;2022-12-07T09:00:09;54.00;;;23.23;;
49392;SDS011;35268;42.642;23.308;2022-12-07T09:02:35;43.60;;;22.98;;
49392;SDS011;35268;42.642;23.308;2022-12-07T09:05:01;45.38;;;21.92;;
49392;SDS011;35268;42.642;23.308;2022-12-07T09:07:26;53.75;;;22.27;;
49392;SDS011;35268;42.642;23.308;2022-12-07T09:09:52;46.95;;;22.58;;
49392;SDS011;35268;42.642;23.308;2022-12-07T09:12:17;46.17;;;21.27;;
49392;SDS011;35268;42.642;23.308;2022-12-07T09:14:43;42.05;;;19.30;;
49392;SDS011;35268;42.642;23.308;2022-12-07T09:17:10;48.38;;;22.33;;
49392;SDS011;35268;42.642;23.308;2022-12-07T09:19:37;55.90;;;20.42;;
49392;SDS011;35268;42.642;23.308;2022-12-07T09:22:03;48.92;;;20.58;;
49392;SDS011;35268;42.642;23.308;2022-12-07T09:24:32;48.72;;;20.60;;
49392;SDS011;35268;42.642;23.308;2022-12-07T09:26:58;43.35;;;20.70;;
49392;SDS011;35268;42.642;23.308;2022-12-07T09:29:23;37.58;;;17.20;;
49392;SDS011;35268;42.642;23.308;2022-12-07T09:31:49;36.63;;;17.15;;
49392;SDS011;35268;42.642;23.308;2022-12-07T09:34:15;50.35;;;19.60;;
49392;SDS011;35268;42.642;23.308;2022-12-07T09:36:41;63.70;;;27.08;;
49392;SDS011;35268;42.642;23.308;2022-12-07T09:39:07;49.70;;;25.60;;
49392;SDS011;35268;42.642;23.308;2022-12-07T09:41:33;48.15;;;20.90;;
49392;SDS011;35268;42.642;23.308;2022-12-07T09:44:10;46.97;;;19.90;;
49392;SDS011;35268;42.642;23.308;2022-12-07T09:46:39;62.00;;;22.80;;
49392;SDS011;35268;42.642;23.308;2022-12-07T09:49:14;54.10;;;19.50;;
49392;SDS011;35268;42.642;23.308;2022-12-07T09:51:43;54.03;;;21.02;;
49392;SDS011;35268;42.642;23.308;2022-12-07T09:54:11;62.85;;;21.85;;
49392;SDS011;35268;42.642;23.308;2022-12-07T09:56:38;53.28;;;24.98;;
49392;SDS011;35268;42.642;23.308;2022-12-07T09:59:04;58.40;;;25.55;;
49392;SDS011;35268;42.642;23.308;2022-12-07T10:01:30;66.43;;;27.77;;
49392;SDS011;35268;42.642;23.308;2022-12-07T10:06:36;54.83;;;23.10;;
49392;SDS011;35268;42.642;23.308;2022-12-07T10:09:02;57.53;;;24.00;;
49392;SDS011;35268;42.642;23.308;2022-12-07T10:11:28;51.67;;;20.00;;
49392;SDS011;35268;42.642;23.308;2022-12-07T10:13:53;46.85;;;19.83;;
49392;SDS011;35268;42.642;23.308;2022-12-07T10:18:51;39.20;;;18.45;;
49392;SDS011;35268;42.642;23.308;2022-12-07T10:21:18;40.95;;;19.88;;
49392;SDS011;35268;42.642;23.308;2022-12-07T10:29:19;43.72;;;19.20;;
49392;SDS011;35268;42.642;23.308;2022-12-07T10:34:44;43.30;;;18.45;;
49392;SDS011;35268;42.642;23.308;2022-12-07T10:39:46;46.88;;;19.40;;
49392;SDS011;35268;42.642;23.308;2022-12-07T11:12:37;26.25;;;11.07;;
49392;SDS011;35268;42.642;23.308;2022-12-07T11:17:56;25.40;;;10.80;;
49392;SDS011;35268;42.642;23.308;2022-12-07T11:20:41;31.58;;;10.00;;
49392;SDS011;35268;42.642;23.308;2022-12-07T11:26:10;33.08;;;8.68;;
49392;SDS011;35268;42.642;23.308;2022-12-07T11:33:53;35.03;;;11.65;;
49392;SDS011;35268;42.642;23.308;2022-12-07T11:41:44;19.58;;;10.23;;
49392;SDS011;35268;42.642;23.308;2022-12-07T11:47:20;25.20;;;11.10;;
49392;SDS011;35268;42.642;23.308;2022-12-07T11:55:54;31.27;;;12.10;;
49392;SDS011;35268;42.642;23.308;2022-12-07T12:00:44;22.02;;;8.77;;
49392;SDS011;35268;42.642;23.308;2022-12-07T12:03:11;15.65;;;7.20;;
49392;SDS011;35268;42.642;23.308;2022-12-07T12:05:48;18.00;;;7.30;;
49392;SDS011;35268;42.642;23.308;2022-12-07T12:08:16;19.42;;;8.77;;
49392;SDS011;35268;42.642;23.308;2022-12-07T12:19:14;23.35;;;9.80;;
49392;SDS011;35268;42.642;23.308;2022-12-07T12:22:07;17.98;;;9.18;;
49392;SDS011;35268;42.642;23.308;2022-12-07T12:24:40;25.85;;;9.50;;
49392;SDS011;35268;42.642;23.308;2022-12-07T12:27:09;26.40;;;10.18;;
49392;SDS011;35268;42.642;23.308;2022-12-07T12:29:43;27.05;;;10.48;;
49392;SDS011;35268;42.642;23.308;2022-12-07T12:32:22;26.52;;;11.23;;
49392;SDS011;35268;42.642;23.308;2022-12-07T12:37:44;39.45;;;13.02;;
49392;SDS011;35268;42.642;23.308;2022-12-07T12:42:56;35.70;;;13.90;;
49392;SDS011;35268;42.642;23.308;2022-12-07T12:45:23;29.65;;;13.05;;
49392;SDS011;35268;42.642;23.308;2022-12-07T12:47:57;36.38;;;13.68;;
49392;SDS011;35268;42.642;23.308;2022-12-07T12:55:58;30.42;;;13.57;;
49392;SDS011;35268;42.642;23.308;2022-12-07T12:58:44;32.65;;;13.05;;
49392;SDS011;35268;42.642;23.308;2022-12-07T13:07:47;25.38;;;11.27;;
49392;SDS011;35268;42.642;23.308;2022-12-07T13:21:02;37.45;;;12.25;;
49392;SDS011;35268;42.642;23.308;2022-12-07T13:23:57;27.25;;;11.50;;
49392;SDS011;35268;42.642;23.308;2022-12-07T13:26:39;35.47;;;12.07;;
49392;SDS011;35268;42.642;23.308;2022-12-07T13:37:21;38.85;;;12.38;;
49392;SDS011;35268;42.642;23.308;2022-12-07T13:39:55;29.58;;;10.07;;
49392;SDS011;35268;42.642;23.308;2022-12-07T13:45:00;24.83;;;9.73;;
49392;SDS011;35268;42.642;23.308;2022-12-07T13:47:48;25.75;;;9.50;;
49392;SDS011;35268;42.642;23.308;2022-12-07T13:50:28;24.73;;;10.68;;
49392;SDS011;35268;42.642;23.308;2022-12-07T13:52:56;31.45;;;9.82;;
49392;SDS011;35268;42.642;23.308;2022-12-07T13:55:26;23.08;;;11.18;;
49392;SDS011;35268;42.642;23.308;2022-12-07T13:57:53;29.30;;;10.32;;
49392;SDS011;35268;42.642;23.308;2022-12-07T14:00:24;26.73;;;11.90;;
49392;SDS011;35268;42.642;23.308;2022-12-07T14:02:56;26.17;;;10.25;;
49392;SDS011;35268;42.642;23.308;2022-12-07T14:05:30;36.22;;;9.65;;
49392;SDS011;35268;42.642;23.308;2022-12-07T14:08:00;36.25;;;9.70;;
49392;SDS011;35268;42.642;23.308;2022-12-07T14:10:30;27.10;;;10.30;;
49392;SDS011;35268;42.642;23.308;2022-12-07T14:13:18;30.02;;;12.70;;
49392;SDS011;35268;42.642;23.308;2022-12-07T14:15:50;30.67;;;10.07;;
49392;SDS011;35268;42.642;23.308;2022-12-07T14:21:04;25.85;;;12.88;;
49392;SDS011;35268;42.642;23.308;2022-12-07T14:23:36;30.30;;;11.70;;
49392;SDS011;35268;42.642;23.308;2022-12-07T14:28:39;32.42;;;14.02;;
49392;SDS011;35268;42.642;23.308;2022-12-07T14:33:37;20.25;;;10.52;;
49392;SDS011;35268;42.642;23.308;2022-12-07T14:36:04;23.05;;;11.18;;
49392;SDS011;35268;42.642;23.308;2022-12-07T14:38:29;25.40;;;11.18;;
49392;SDS011;35268;42.642;23.308;2022-12-07T14:40:55;22.60;;;11.65;;
49392;SDS011;35268;42.642;23.308;2022-12-07T14:43:44;41.75;;;12.60;;
49392;SDS011;35268;42.642;23.308;2022-12-07T14:46:10;37.55;;;12.45;;
49392;SDS011;35268;42.642;23.308;2022-12-07T14:48:35;30.33;;;12.25;;
49392;SDS011;35268;42.642;23.308;2022-12-07T14:51:01;39.85;;;16.40;;
49392;SDS011;35268;42.642;23.308;2022-12-07T14:53:29;47.58;;;19.15;;
49392;SDS011;35268;42.642;23.308;2022-12-07T14:55:59;41.85;;;18.35;;
49392;SDS011;35268;42.642;23.308;2022-12-07T14:58:24;46.40;;;16.67;;
49392;SDS011;35268;42.642;23.308;2022-12-07T15:00:50;45.35;;;13.20;;
49392;SDS011;35268;42.642;23.308;2022-12-07T15:03:15;37.17;;;15.50;;
49392;SDS011;35268;42.642;23.308;2022-12-07T15:05:40;35.85;;;12.82;;
49392;SDS011;35268;42.642;23.308;2022-12-07T15:08:08;40.08;;;16.48;;
49392;SDS011;35268;42.642;23.308;2022-12-07T15:10:35;38.30;;;16.38;;
49392;SDS011;35268;42.642;23.308;2022-12-07T15:13:03;56.08;;;21.65;;
49392;SDS011;35268;42.642;23.308;2022-12-07T15:15:48;82.88;;;35.53;;
49392;SDS011;35268;42.642;23.308;2022-12-07T15:18:15;67.63;;;30.65;;
49392;SDS011;35268;42.642;23.308;2022-12-07T15:20:41;71.25;;;27.50;;
49392;SDS011;35268;42.642;23.308;2022-12-07T15:23:07;57.20;;;24.70;;
49392;SDS011;35268;42.642;23.308;2022-12-07T15:25:32;63.65;;;27.73;;
49392;SDS011;35268;42.642;23.308;2022-12-07T15:27:58;57.78;;;27.08;;
49392;SDS011;35268;42.642;23.308;2022-12-07T15:30:23;56.05;;;24.88;;
49392;SDS011;35268;42.642;23.308;2022-12-07T15:32:49;59.00;;;26.58;;
49392;SDS011;35268;42.642;23.308;2022-12-07T15:35:16;57.33;;;26.42;;
49392;SDS011;35268;42.642;23.308;2022-12-07T15:37:41;55.38;;;25.80;;
49392;SDS011;35268;42.642;23.308;2022-12-07T15:40:07;43.45;;;17.65;;
49392;SDS011;35268;42.642;23.308;2022-12-07T15:42:33;42.08;;;15.93;;
49392;SDS011;35268;42.642;23.308;2022-12-07T15:44:58;44.00;;;18.75;;
49392;SDS011;35268;42.642;23.308;2022-12-07T15:47:42;50.45;;;20.80;;
49392;SDS011;35268;42.642;23.308;2022-12-07T15:50:13;56.47;;;24.77;;
49392;SDS011;35268;42.642;23.308;2022-12-07T15:52:40;46.58;;;20.75;;
49392;SDS011;35268;42.642;23.308;2022-12-07T15:55:05;30.02;;;15.77;;
49392;SDS011;35268;42.642;23.308;2022-12-07T15:57:31;41.08;;;17.98;;
49392;SDS011;35268;42.642;23.308;2022-12-07T15:59:58;43.90;;;17.98;;
49392;SDS011;35268;42.642;23.308;2022-12-07T16:02:23;40.25;;;17.27;;
49392;SDS011;35268;42.642;23.308;2022-12-07T16:04:50;38.33;;;18.35;;
49392;SDS011;35268;42.642;23.308;2022-12-07T16:07:16;40.80;;;19.52;;
49392;SDS011;35268;42.642;23.308;2022-12-07T16:09:43;44.55;;;20.13;;
49392;SDS011;35268;42.642;23.308;2022-12-07T16:12:10;52.80;;;23.02;;
49392;SDS011;35268;42.642;23.308;2022-12-07T16:14:36;44.30;;;20.45;;
49392;SDS011;35268;42.642;23.308;2022-12-07T16:17:02;46.70;;;20.13;;
49392;SDS011;35268;42.642;23.308;2022-12-07T16:19:29;50.15;;;23.50;;
49392;SDS011;35268;42.642;23.308;2022-12-07T16:21:55;50.22;;;21.77;;
49392;SDS011;35268;42.642;23.308;2022-12-07T16:24:21;52.40;;;23.67;;
49392;SDS011;35268;42.642;23.308;2022-12-07T16:26:47;47.85;;;23.00;;
49392;SDS011;35268;42.642;23.308;2022-12-07T16:29:13;55.08;;;25.55;;
49392;SDS011;35268;42.642;23.308;2022-12-07T16:31:39;75.53;;;32.95;;
49392;SDS011;35268;42.642;23.308;2022-12-07T16:34:05;85.15;;;37.38;;
49392;SDS011;35268;42.642;23.308;2022-12-07T16:36:31;84.13;;;38.35;;
49392;SDS011;35268;42.642;23.308;2022-12-07T16:38:57;74.90;;;35.42;;
49392;SDS011;35268;42.642;23.308;2022-12-07T16:41:24;45.08;;;20.88;;
49392;SDS011;35268;42.642;23.308;2022-12-07T16:43:49;34.28;;;17.27;;
49392;SDS011;35268;42.642;23.308;2022-12-07T16:46:15;38.97;;;19.92;;
49392;SDS011;35268;42.642;23.308;2022-12-07T16:48:40;81.78;;;31.85;;
49392;SDS011;35268;42.642;23.308;2022-12-07T16:51:07;136.60;;;47.05;;
49392;SDS011;35268;42.642;23.308;2022-12-07T16:53:34;94.95;;;33.80;;
49392;SDS011;35268;42.642;23.308;2022-12-07T16:56:00;93.75;;;31.55;;
49392;SDS011;35268;42.642;23.308;2022-12-07T16:58:25;82.13;;;30.42;;
49392;SDS011;35268;42.642;23.308;2022-12-07T17:00:51;59.45;;;21.60;;